sensor_id;sensor_type;location;lat;lon;timestamp;temperature;humidity
1351;DHT22;669;50.206;9.998;2023-02-28T00:01:29;-1.30;71.40
1351;DHT22;669;50.206;9.998;2023-02-28T00:03:57;-1.40;71.60
1351;DHT22;669;50.206;9.998;2023-02-28T00:06:27;-1.40;71.40
1351;DHT22;669;50.206;9.998;2023-02-28T00:08:55;-1.40;71.30
1351;DHT22;669;50.206;9.998;2023-02-28T00:11:23;-1.40;71.20
1351;DHT22;669;50.206;9.998;2023-02-28T00:13:51;-1.40;71.30
1351;DHT22;669;50.206;9.998;2023-02-28T00:16:20;-1.40;71.70
1351;DHT22;669;50.206;9.998;2023-02-28T00:18:49;-1.40;71.70
1351;DHT22;669;50.206;9.998;2023-02-28T00:21:17;-1.50;71.80
1351;DHT22;669;50.206;9.998;2023-02-28T00:23:47;-1.50;72.50
1351;DHT22;669;50.206;9.998;2023-02-28T00:26:15;-1.50;72.70
1351;DHT22;669;50.206;9.998;2023-02-28T00:28:44;-1.50;73.00
1351;DHT22;669;50.206;9.998;2023-02-28T00:31:12;-1.50;72.70
1351;DHT22;669;50.206;9.998;2023-02-28T00:33:41;-1.60;72.30
1351;DHT22;669;50.206;9.998;2023-02-28T00:36:10;-1.60;72.80
1351;DHT22;669;50.206;9.998;2023-02-28T00:38:39;-1.60;72.90
1351;DHT22;669;50.206;9.998;2023-02-28T00:41:09;-1.70;73.00
1351;DHT22;669;50.206;9.998;2023-02-28T00:43:38;-1.70;73.30
1351;DHT22;669;50.206;9.998;2023-02-28T00:46:07;-1.70;73.40
1351;DHT22;669;50.206;9.998;2023-02-28T00:48:35;-1.80;73.80
1351;DHT22;669;50.206;9.998;2023-02-28T00:51:04;-1.80;73.80
1351;DHT22;669;50.206;9.998;2023-02-28T00:53:32;-1.70;73.90
1351;DHT22;669;50.206;9.998;2023-02-28T00:56:00;-1.70;73.80
1351;DHT22;669;50.206;9.998;2023-02-28T00:58:29;-1.80;73.80
1351;DHT22;669;50.206;9.998;2023-02-28T01:00:58;-1.70;74.50
1351;DHT22;669;50.206;9.998;2023-02-28T01:03:27;-1.70;74.20
1351;DHT22;669;50.206;9.998;2023-02-28T01:05:55;-1.70;74.70
1351;DHT22;669;50.206;9.998;2023-02-28T01:08:23;-1.70;74.70
1351;DHT22;669;50.206;9.998;2023-02-28T01:10:52;-1.80;74.80
1351;DHT22;669;50.206;9.998;2023-02-28T01:13:20;-1.70;75.30
1351;DHT22;669;50.206;9.998;2023-02-28T01:15:53;-1.80;74.60
1351;DHT22;669;50.206;9.998;2023-02-28T01:18:22;-1.80;75.00
1351;DHT22;669;50.206;9.998;2023-02-28T01:20:51;-1.80;74.70
1351;DHT22;669;50.206;9.998;2023-02-28T01:23:19;-1.80;74.10
1351;DHT22;669;50.206;9.998;2023-02-28T01:25:48;-1.80;73.80
1351;DHT22;669;50.206;9.998;2023-02-28T01:28:16;-1.80;73.80
1351;DHT22;669;50.206;9.998;2023-02-28T01:30:47;-1.80;74.10
1351;DHT22;669;50.206;9.998;2023-02-28T01:33:17;-1.80;74.00
1351;DHT22;669;50.206;9.998;2023-02-28T01:35:45;-1.80;73.80
1351;DHT22;669;50.206;9.998;2023-02-28T01:38:13;-1.80;73.80
1351;DHT22;669;50.206;9.998;2023-02-28T01:40:48;-1.80;74.10
1351;DHT22;669;50.206;9.998;2023-02-28T01:43:20;-1.80;73.80
1351;DHT22;669;50.206;9.998;2023-02-28T01:45:49;-1.80;73.70
1351;DHT22;669;50.206;9.998;2023-02-28T01:48:19;-1.90;73.70
1351;DHT22;669;50.206;9.998;2023-02-28T01:50:48;-1.90;74.20
1351;DHT22;669;50.206;9.998;2023-02-28T01:53:19;-2.00;74.60
1351;DHT22;669;50.206;9.998;2023-02-28T01:55:50;-2.00;74.90
1351;DHT22;669;50.206;9.998;2023-02-28T01:58:19;-2.00;74.90
1351;DHT22;669;50.206;9.998;2023-02-28T02:00:47;-2.00;74.20
1351;DHT22;669;50.206;9.998;2023-02-28T02:03:18;-2.10;73.90
1351;DHT22;669;50.206;9.998;2023-02-28T02:05:47;-2.10;74.50
1351;DHT22;669;50.206;9.998;2023-02-28T02:08:17;-2.20;74.10
1351;DHT22;669;50.206;9.998;2023-02-28T02:10:49;-2.20;75.00
1351;DHT22;669;50.206;9.998;2023-02-28T02:13:52;-2.20;74.60
1351;DHT22;669;50.206;9.998;2023-02-28T02:16:37;-2.20;74.30
1351;DHT22;669;50.206;9.998;2023-02-28T02:19:21;-2.20;74.00
1351;DHT22;669;50.206;9.998;2023-02-28T02:22:11;-2.30;73.60
1351;DHT22;669;50.206;9.998;2023-02-28T02:24:59;-2.30;73.30
1351;DHT22;669;50.206;9.998;2023-02-28T02:27:59;-2.30;73.30
1351;DHT22;669;50.206;9.998;2023-02-28T02:30:48;-2.30;73.70
1351;DHT22;669;50.206;9.998;2023-02-28T02:36:27;-2.40;74.30
1351;DHT22;669;50.206;9.998;2023-02-28T02:39:02;-2.40;73.70
1351;DHT22;669;50.206;9.998;2023-02-28T02:41:37;-2.40;74.10
1351;DHT22;669;50.206;9.998;2023-02-28T02:44:11;-2.40;73.50
1351;DHT22;669;50.206;9.998;2023-02-28T02:46:42;-2.40;73.20
1351;DHT22;669;50.206;9.998;2023-02-28T02:49:16;-2.40;73.70
1351;DHT22;669;50.206;9.998;2023-02-28T02:51:46;-2.30;74.90
1351;DHT22;669;50.206;9.998;2023-02-28T02:54:17;-2.30;75.40
1351;DHT22;669;50.206;9.998;2023-02-28T02:56:48;-2.20;75.50
1351;DHT22;669;50.206;9.998;2023-02-28T02:59:20;-2.20;75.70
1351;DHT22;669;50.206;9.998;2023-02-28T03:01:53;-2.10;74.70
1351;DHT22;669;50.206;9.998;2023-02-28T03:04:24;-2.10;74.60
1351;DHT22;669;50.206;9.998;2023-02-28T03:06:54;-2.00;74.60
1351;DHT22;669;50.206;9.998;2023-02-28T03:09:22;-2.00;74.40
1351;DHT22;669;50.206;9.998;2023-02-28T03:11:52;-2.00;74.40
1351;DHT22;669;50.206;9.998;2023-02-28T03:14:40;-2.00;73.80
1351;DHT22;669;50.206;9.998;2023-02-28T03:17:24;-2.10;73.90
1351;DHT22;669;50.206;9.998;2023-02-28T03:20:04;-2.10;74.50
1351;DHT22;669;50.206;9.998;2023-02-28T03:22:46;-2.00;75.00
1351;DHT22;669;50.206;9.998;2023-02-28T03:25:27;-2.00;75.90
1351;DHT22;669;50.206;9.998;2023-02-28T03:28:04;-2.00;75.40
1351;DHT22;669;50.206;9.998;2023-02-28T03:30:41;-2.00;75.90
1351;DHT22;669;50.206;9.998;2023-02-28T03:33:12;-1.90;76.70
1351;DHT22;669;50.206;9.998;2023-02-28T03:35:43;-1.90;76.50
1351;DHT22;669;50.206;9.998;2023-02-28T03:38:18;-1.80;76.40
1351;DHT22;669;50.206;9.998;2023-02-28T03:40:50;-1.80;76.20
1351;DHT22;669;50.206;9.998;2023-02-28T03:43:22;-1.70;76.00
1351;DHT22;669;50.206;9.998;2023-02-28T03:45:52;-1.70;75.50
1351;DHT22;669;50.206;9.998;2023-02-28T03:48:26;-1.70;75.10
1351;DHT22;669;50.206;9.998;2023-02-28T03:50:58;-1.70;75.50
1351;DHT22;669;50.206;9.998;2023-02-28T03:53:32;-1.70;74.80
1351;DHT22;669;50.206;9.998;2023-02-28T03:56:03;-1.70;73.90
1351;DHT22;669;50.206;9.998;2023-02-28T03:58:39;-1.70;73.90
1351;DHT22;669;50.206;9.998;2023-02-28T04:01:13;-1.70;73.90
1351;DHT22;669;50.206;9.998;2023-02-28T04:03:42;-1.70;73.90
1351;DHT22;669;50.206;9.998;2023-02-28T04:06:15;-1.80;73.80
1351;DHT22;669;50.206;9.998;2023-02-28T04:08:45;-1.80;73.80
1351;DHT22;669;50.206;9.998;2023-02-28T04:11:19;-1.80;73.70
1351;DHT22;669;50.206;9.998;2023-02-28T04:13:48;-1.90;73.00
1351;DHT22;669;50.206;9.998;2023-02-28T04:16:17;-1.80;73.20
1351;DHT22;669;50.206;9.998;2023-02-28T04:18:59;-1.90;73.10
1351;DHT22;669;50.206;9.998;2023-02-28T04:21:29;-1.90;72.40
1351;DHT22;669;50.206;9.998;2023-02-28T04:24:00;-1.90;73.20
1351;DHT22;669;50.206;9.998;2023-02-28T04:26:29;-1.90;73.30
1351;DHT22;669;50.206;9.998;2023-02-28T04:28:57;-1.90;72.90
1351;DHT22;669;50.206;9.998;2023-02-28T04:31:25;-2.00;72.30
1351;DHT22;669;50.206;9.998;2023-02-28T04:33:54;-2.00;72.30
1351;DHT22;669;50.206;9.998;2023-02-28T04:36:22;-2.00;72.50
1351;DHT22;669;50.206;9.998;2023-02-28T04:38:50;-2.00;71.60
1351;DHT22;669;50.206;9.998;2023-02-28T04:41:21;-2.00;71.90
1351;DHT22;669;50.206;9.998;2023-02-28T04:43:50;-2.00;71.90
1351;DHT22;669;50.206;9.998;2023-02-28T04:46:19;-2.00;70.60
1351;DHT22;669;50.206;9.998;2023-02-28T04:48:47;-2.00;71.00
1351;DHT22;669;50.206;9.998;2023-02-28T04:51:17;-2.00;70.50
1351;DHT22;669;50.206;9.998;2023-02-28T04:53:45;-2.10;70.20
1351;DHT22;669;50.206;9.998;2023-02-28T04:56:16;-2.00;69.70
1351;DHT22;669;50.206;9.998;2023-02-28T04:58:46;-2.10;69.60
1351;DHT22;669;50.206;9.998;2023-02-28T05:01:21;-2.10;69.50
1351;DHT22;669;50.206;9.998;2023-02-28T05:03:49;-2.10;69.40
1351;DHT22;669;50.206;9.998;2023-02-28T05:06:21;-2.10;68.80
1351;DHT22;669;50.206;9.998;2023-02-28T05:08:50;-2.10;68.80
1351;DHT22;669;50.206;9.998;2023-02-28T05:11:20;-2.10;67.90
1351;DHT22;669;50.206;9.998;2023-02-28T05:13:50;-2.00;68.60
1351;DHT22;669;50.206;9.998;2023-02-28T05:16:19;-2.00;68.10
1351;DHT22;669;50.206;9.998;2023-02-28T05:18:47;-2.00;66.90
1351;DHT22;669;50.206;9.998;2023-02-28T05:21:24;-1.90;67.00
1351;DHT22;669;50.206;9.998;2023-02-28T05:23:53;-2.00;66.50
1351;DHT22;669;50.206;9.998;2023-02-28T05:26:22;-1.90;66.10
1351;DHT22;669;50.206;9.998;2023-02-28T05:28:51;-1.90;66.20
1351;DHT22;669;50.206;9.998;2023-02-28T05:31:19;-1.90;65.70
1351;DHT22;669;50.206;9.998;2023-02-28T05:33:47;-1.90;65.20
1351;DHT22;669;50.206;9.998;2023-02-28T05:36:15;-1.90;64.70
1351;DHT22;669;50.206;9.998;2023-02-28T05:38:46;-1.90;64.20
1351;DHT22;669;50.206;9.998;2023-02-28T05:41:14;-1.90;64.20
1351;DHT22;669;50.206;9.998;2023-02-28T05:43:41;-1.80;65.30
1351;DHT22;669;50.206;9.998;2023-02-28T05:46:12;-1.90;64.30
1351;DHT22;669;50.206;9.998;2023-02-28T05:48:41;-1.80;64.30
1351;DHT22;669;50.206;9.998;2023-02-28T05:51:09;-1.80;64.30
1351;DHT22;669;50.206;9.998;2023-02-28T05:53:37;-1.80;65.10
1351;DHT22;669;50.206;9.998;2023-02-28T05:56:05;-1.80;64.40
1351;DHT22;669;50.206;9.998;2023-02-28T05:58:33;-1.90;65.10
1351;DHT22;669;50.206;9.998;2023-02-28T06:01:21;-1.90;64.20
1351;DHT22;669;50.206;9.998;2023-02-28T06:03:49;-1.80;65.30
1351;DHT22;669;50.206;9.998;2023-02-28T06:06:17;-1.80;65.20
1351;DHT22;669;50.206;9.998;2023-02-28T06:08:45;-1.90;65.00
1351;DHT22;669;50.206;9.998;2023-02-28T06:11:13;-1.90;64.60
1351;DHT22;669;50.206;9.998;2023-02-28T06:13:41;-1.80;64.90
1351;DHT22;669;50.206;9.998;2023-02-28T06:16:10;-1.80;64.30
1351;DHT22;669;50.206;9.998;2023-02-28T06:18:40;-1.80;63.90
1351;DHT22;669;50.206;9.998;2023-02-28T06:21:08;-1.80;64.30
1351;DHT22;669;50.206;9.998;2023-02-28T06:23:36;-1.80;65.00
1351;DHT22;669;50.206;9.998;2023-02-28T06:26:04;-1.80;65.10
1351;DHT22;669;50.206;9.998;2023-02-28T06:28:32;-1.70;64.40
1351;DHT22;669;50.206;9.998;2023-02-28T06:31:06;-1.70;64.40
1351;DHT22;669;50.206;9.998;2023-02-28T06:33:34;-1.70;64.40
1351;DHT22;669;50.206;9.998;2023-02-28T06:36:04;-1.60;64.50
1351;DHT22;669;50.206;9.998;2023-02-28T06:38:32;-1.50;62.90
1351;DHT22;669;50.206;9.998;2023-02-28T06:41:01;-1.40;62.70
1351;DHT22;669;50.206;9.998;2023-02-28T06:43:32;-1.40;62.20
1351;DHT22;669;50.206;9.998;2023-02-28T06:46:01;-1.40;62.60
1351;DHT22;669;50.206;9.998;2023-02-28T06:48:29;-1.30;62.50
1351;DHT22;669;50.206;9.998;2023-02-28T06:51:07;-1.30;62.60
1351;DHT22;669;50.206;9.998;2023-02-28T06:53:36;-1.30;61.20
1351;DHT22;669;50.206;9.998;2023-02-28T06:56:05;-1.30;61.40
1351;DHT22;669;50.206;9.998;2023-02-28T06:58:33;-1.20;61.20
1351;DHT22;669;50.206;9.998;2023-02-28T07:01:02;-1.20;61.60
1351;DHT22;669;50.206;9.998;2023-02-28T07:03:30;-1.20;61.90
1351;DHT22;669;50.206;9.998;2023-02-28T07:06:00;-1.10;61.40
1351;DHT22;669;50.206;9.998;2023-02-28T07:08:30;-1.00;60.80
1351;DHT22;669;50.206;9.998;2023-02-28T07:10:58;-0.90;60.30
1351;DHT22;669;50.206;9.998;2023-02-28T07:13:26;-0.80;59.80
1351;DHT22;669;50.206;9.998;2023-02-28T07:15:55;-0.70;60.20
1351;DHT22;669;50.206;9.998;2023-02-28T07:18:23;-0.50;58.40
1351;DHT22;669;50.206;9.998;2023-02-28T07:20:52;-0.30;57.90
1351;DHT22;669;50.206;9.998;2023-02-28T07:23:21;-0.10;56.90
1351;DHT22;669;50.206;9.998;2023-02-28T07:25:50;0.10;56.70
1351;DHT22;669;50.206;9.998;2023-02-28T07:28:18;0.40;56.60
1351;DHT22;669;50.206;9.998;2023-02-28T07:30:46;0.70;53.50
1351;DHT22;669;50.206;9.998;2023-02-28T07:33:15;0.80;52.90
1351;DHT22;669;50.206;9.998;2023-02-28T07:35:43;0.90;52.70
1351;DHT22;669;50.206;9.998;2023-02-28T07:38:11;1.00;52.40
1351;DHT22;669;50.206;9.998;2023-02-28T07:40:40;1.20;53.10
1351;DHT22;669;50.206;9.998;2023-02-28T07:43:09;1.10;51.00
1351;DHT22;669;50.206;9.998;2023-02-28T07:45:37;1.20;50.90
1351;DHT22;669;50.206;9.998;2023-02-28T07:48:05;1.30;50.90
1351;DHT22;669;50.206;9.998;2023-02-28T07:50:36;1.60;49.60
1351;DHT22;669;50.206;9.998;2023-02-28T07:53:04;1.70;49.20
1351;DHT22;669;50.206;9.998;2023-02-28T07:55:32;1.90;49.00
1351;DHT22;669;50.206;9.998;2023-02-28T07:58:00;2.20;47.60
1351;DHT22;669;50.206;9.998;2023-02-28T08:00:29;2.50;46.30
1351;DHT22;669;50.206;9.998;2023-02-28T08:02:58;2.60;47.10
1351;DHT22;669;50.206;9.998;2023-02-28T08:05:26;2.80;44.60
1351;DHT22;669;50.206;9.998;2023-02-28T08:07:54;3.00;44.80
1351;DHT22;669;50.206;9.998;2023-02-28T08:10:22;3.20;44.10
1351;DHT22;669;50.206;9.998;2023-02-28T08:12:51;3.40;44.30
1351;DHT22;669;50.206;9.998;2023-02-28T08:15:18;3.70;42.90
1351;DHT22;669;50.206;9.998;2023-02-28T08:17:48;3.80;41.60
1351;DHT22;669;50.206;9.998;2023-02-28T08:20:16;3.80;41.60
1351;DHT22;669;50.206;9.998;2023-02-28T08:22:43;4.00;42.60
1351;DHT22;669;50.206;9.998;2023-02-28T08:25:11;4.40;41.60
1351;DHT22;669;50.206;9.998;2023-02-28T08:27:40;4.10;39.80
1351;DHT22;669;50.206;9.998;2023-02-28T08:30:10;4.30;40.10
1351;DHT22;669;50.206;9.998;2023-02-28T08:32:38;4.00;40.30
1351;DHT22;669;50.206;9.998;2023-02-28T08:35:09;4.10;42.10
1351;DHT22;669;50.206;9.998;2023-02-28T08:37:37;4.20;38.50
1351;DHT22;669;50.206;9.998;2023-02-28T08:40:06;4.30;40.60
1351;DHT22;669;50.206;9.998;2023-02-28T08:42:34;4.60;38.20
1351;DHT22;669;50.206;9.998;2023-02-28T08:45:03;4.90;37.40
1351;DHT22;669;50.206;9.998;2023-02-28T08:47:31;4.70;37.70
1351;DHT22;669;50.206;9.998;2023-02-28T08:49:59;4.90;37.80
1351;DHT22;669;50.206;9.998;2023-02-28T08:52:28;4.80;38.10
1351;DHT22;669;50.206;9.998;2023-02-28T08:54:56;4.90;36.90
1351;DHT22;669;50.206;9.998;2023-02-28T08:57:24;4.90;37.90
1351;DHT22;669;50.206;9.998;2023-02-28T08:59:54;4.80;36.10
1351;DHT22;669;50.206;9.998;2023-02-28T09:02:22;4.60;37.60
1351;DHT22;669;50.206;9.998;2023-02-28T09:04:50;4.70;37.70
1351;DHT22;669;50.206;9.998;2023-02-28T09:07:17;5.00;35.50
1351;DHT22;669;50.206;9.998;2023-02-28T09:09:47;5.10;36.90
1351;DHT22;669;50.206;9.998;2023-02-28T09:12:21;5.20;34.10
1351;DHT22;669;50.206;9.998;2023-02-28T09:14:50;4.70;35.60
1351;DHT22;669;50.206;9.998;2023-02-28T09:17:18;4.90;35.00
1351;DHT22;669;50.206;9.998;2023-02-28T09:19:47;4.60;33.00
1351;DHT22;669;50.206;9.998;2023-02-28T09:22:15;4.50;36.50
1351;DHT22;669;50.206;9.998;2023-02-28T09:24:43;4.50;35.40
1351;DHT22;669;50.206;9.998;2023-02-28T09:27:13;4.20;33.20
1351;DHT22;669;50.206;9.998;2023-02-28T09:29:41;3.90;34.10
1351;DHT22;669;50.206;9.998;2023-02-28T09:32:09;4.00;37.20
1351;DHT22;669;50.206;9.998;2023-02-28T09:34:37;4.30;34.10
1351;DHT22;669;50.206;9.998;2023-02-28T09:37:05;4.50;35.10
1351;DHT22;669;50.206;9.998;2023-02-28T09:39:33;4.50;33.90
1351;DHT22;669;50.206;9.998;2023-02-28T09:42:02;4.10;35.50
1351;DHT22;669;50.206;9.998;2023-02-28T09:44:36;4.30;34.40
1351;DHT22;669;50.206;9.998;2023-02-28T09:47:10;4.10;32.60
1351;DHT22;669;50.206;9.998;2023-02-28T09:49:42;4.00;35.80
1351;DHT22;669;50.206;9.998;2023-02-28T09:52:17;4.00;35.80
1351;DHT22;669;50.206;9.998;2023-02-28T09:54:46;4.50;35.90
1351;DHT22;669;50.206;9.998;2023-02-28T09:57:19;4.80;36.50
1351;DHT22;669;50.206;9.998;2023-02-28T09:59:57;5.00;33.60
1351;DHT22;669;50.206;9.998;2023-02-28T10:03:04;5.20;36.50
1351;DHT22;669;50.206;9.998;2023-02-28T10:05:37;5.40;33.60
1351;DHT22;669;50.206;9.998;2023-02-28T10:08:13;5.00;32.90
1351;DHT22;669;50.206;9.998;2023-02-28T10:10:44;4.10;31.50
1351;DHT22;669;50.206;9.998;2023-02-28T10:13:17;3.60;33.60
1351;DHT22;669;50.206;9.998;2023-02-28T10:15:52;3.60;33.90
1351;DHT22;669;50.206;9.998;2023-02-28T10:18:26;3.60;34.50
1351;DHT22;669;50.206;9.998;2023-02-28T10:20:55;3.40;32.50
1351;DHT22;669;50.206;9.998;2023-02-28T10:23:27;3.20;34.00
1351;DHT22;669;50.206;9.998;2023-02-28T10:25:59;3.70;35.50
1351;DHT22;669;50.206;9.998;2023-02-28T10:28:29;4.20;33.10
1351;DHT22;669;50.206;9.998;2023-02-28T10:30:59;3.80;31.70
1351;DHT22;669;50.206;9.998;2023-02-28T10:33:30;3.70;32.90
1351;DHT22;669;50.206;9.998;2023-02-28T10:35:58;3.70;35.80
1351;DHT22;669;50.206;9.998;2023-02-28T10:38:28;4.00;36.30
1351;DHT22;669;50.206;9.998;2023-02-28T10:41:07;3.70;34.60
1351;DHT22;669;50.206;9.998;2023-02-28T10:43:37;3.60;36.80
1351;DHT22;669;50.206;9.998;2023-02-28T10:46:13;3.40;34.30
1351;DHT22;669;50.206;9.998;2023-02-28T10:48:44;3.40;36.20
1351;DHT22;669;50.206;9.998;2023-02-28T10:51:15;3.40;35.00
1351;DHT22;669;50.206;9.998;2023-02-28T10:53:52;3.30;36.30
1351;DHT22;669;50.206;9.998;2023-02-28T10:56:28;3.50;35.10
1351;DHT22;669;50.206;9.998;2023-02-28T10:59:00;3.50;35.70
1351;DHT22;669;50.206;9.998;2023-02-28T11:01:37;3.60;37.40
1351;DHT22;669;50.206;9.998;2023-02-28T11:04:17;4.00;34.60
1351;DHT22;669;50.206;9.998;2023-02-28T11:06:46;4.30;36.30
1351;DHT22;669;50.206;9.998;2023-02-28T11:09:23;4.50;37.00
1351;DHT22;669;50.206;9.998;2023-02-28T11:11:52;4.40;36.50
1351;DHT22;669;50.206;9.998;2023-02-28T11:14:22;4.40;36.20
1351;DHT22;669;50.206;9.998;2023-02-28T11:16:54;4.50;34.60
1351;DHT22;669;50.206;9.998;2023-02-28T11:19:25;4.40;35.60
1351;DHT22;669;50.206;9.998;2023-02-28T11:21:55;4.40;35.70
1351;DHT22;669;50.206;9.998;2023-02-28T11:24:26;4.20;32.10
1351;DHT22;669;50.206;9.998;2023-02-28T11:26:55;4.10;32.50
1351;DHT22;669;50.206;9.998;2023-02-28T11:29:26;4.00;34.90
1351;DHT22;669;50.206;9.998;2023-02-28T11:32:13;4.00;33.70
1351;DHT22;669;50.206;9.998;2023-02-28T11:34:44;4.20;36.20
1351;DHT22;669;50.206;9.998;2023-02-28T11:37:13;4.30;34.70
1351;DHT22;669;50.206;9.998;2023-02-28T11:39:42;4.70;36.10
1351;DHT22;669;50.206;9.998;2023-02-28T11:45:19;5.50;33.60
1351;DHT22;669;50.206;9.998;2023-02-28T11:47:56;5.70;33.80
1351;DHT22;669;50.206;9.998;2023-02-28T11:50:44;6.00;30.60
1351;DHT22;669;50.206;9.998;2023-02-28T11:53:21;6.20;29.20
1351;DHT22;669;50.206;9.998;2023-02-28T11:55:55;6.60;29.80
1351;DHT22;669;50.206;9.998;2023-02-28T11:58:38;6.90;30.00
1351;DHT22;669;50.206;9.998;2023-02-28T12:04:16;7.20;29.50
1351;DHT22;669;50.206;9.998;2023-02-28T12:06:50;7.30;30.20
1351;DHT22;669;50.206;9.998;2023-02-28T12:09:32;7.40;30.30
1351;DHT22;669;50.206;9.998;2023-02-28T12:12:08;6.70;29.70
1351;DHT22;669;50.206;9.998;2023-02-28T12:17:48;7.30;30.20
1351;DHT22;669;50.206;9.998;2023-02-28T12:20:27;7.90;30.70
1351;DHT22;669;50.206;9.998;2023-02-28T12:23:09;7.90;32.90
1351;DHT22;669;50.206;9.998;2023-02-28T12:25:50;7.90;30.80
1351;DHT22;669;50.206;9.998;2023-02-28T12:28:26;8.00;29.50
1351;DHT22;669;50.206;9.998;2023-02-28T12:30:59;8.10;30.00
1351;DHT22;669;50.206;9.998;2023-02-28T12:33:33;8.30;29.30
1351;DHT22;669;50.206;9.998;2023-02-28T12:36:08;8.50;28.30
1351;DHT22;669;50.206;9.998;2023-02-28T12:38:43;8.30;31.00
1351;DHT22;669;50.206;9.998;2023-02-28T12:41:13;8.40;31.10
1351;DHT22;669;50.206;9.998;2023-02-28T12:43:46;8.30;29.20
1351;DHT22;669;50.206;9.998;2023-02-28T12:46:19;8.30;29.50
1351;DHT22;669;50.206;9.998;2023-02-28T12:48:52;8.60;29.60
1351;DHT22;669;50.206;9.998;2023-02-28T12:51:24;8.40;29.70
1351;DHT22;669;50.206;9.998;2023-02-28T12:53:59;8.40;31.10
1351;DHT22;669;50.206;9.998;2023-02-28T12:56:39;8.00;27.70
1351;DHT22;669;50.206;9.998;2023-02-28T12:59:14;8.00;29.90
1351;DHT22;669;50.206;9.998;2023-02-28T13:01:51;8.20;29.80
1351;DHT22;669;50.206;9.998;2023-02-28T13:04:56;8.40;29.30
1351;DHT22;669;50.206;9.998;2023-02-28T13:07:50;8.10;27.90
1351;DHT22;669;50.206;9.998;2023-02-28T13:10:38;8.20;28.40
1351;DHT22;669;50.206;9.998;2023-02-28T13:13:11;8.40;29.10
1351;DHT22;669;50.206;9.998;2023-02-28T13:15:41;8.30;28.60
1351;DHT22;669;50.206;9.998;2023-02-28T13:18:30;8.40;28.40
1351;DHT22;669;50.206;9.998;2023-02-28T13:21:00;8.40;31.20
1351;DHT22;669;50.206;9.998;2023-02-28T13:23:58;8.20;30.10
1351;DHT22;669;50.206;9.998;2023-02-28T13:29:32;8.00;29.90
1351;DHT22;669;50.206;9.998;2023-02-28T13:32:32;8.00;29.70
1351;DHT22;669;50.206;9.998;2023-02-28T13:35:35;8.00;28.80
1351;DHT22;669;50.206;9.998;2023-02-28T13:38:17;7.60;30.60
1351;DHT22;669;50.206;9.998;2023-02-28T13:40:46;7.80;30.60
1351;DHT22;669;50.206;9.998;2023-02-28T13:43:16;7.70;29.50
1351;DHT22;669;50.206;9.998;2023-02-28T13:46:11;7.70;32.60
1351;DHT22;669;50.206;9.998;2023-02-28T13:48:41;7.80;30.60
1351;DHT22;669;50.206;9.998;2023-02-28T13:51:39;7.70;30.40
1351;DHT22;669;50.206;9.998;2023-02-28T13:54:18;7.70;28.60
1351;DHT22;669;50.206;9.998;2023-02-28T13:57:03;7.80;31.20
1351;DHT22;669;50.206;9.998;2023-02-28T13:59:37;7.80;28.40
1351;DHT22;669;50.206;9.998;2023-02-28T14:02:37;7.90;32.10
1351;DHT22;669;50.206;9.998;2023-02-28T14:05:14;7.30;30.20
1351;DHT22;669;50.206;9.998;2023-02-28T14:07:45;7.20;32.30
1351;DHT22;669;50.206;9.998;2023-02-28T14:10:23;7.20;29.80
1351;DHT22;669;50.206;9.998;2023-02-28T14:13:14;7.10;29.00
1351;DHT22;669;50.206;9.998;2023-02-28T14:15:54;7.10;29.40
1351;DHT22;669;50.206;9.998;2023-02-28T14:18:29;7.20;31.40
1351;DHT22;669;50.206;9.998;2023-02-28T14:21:02;7.30;31.40
1351;DHT22;669;50.206;9.998;2023-02-28T14:23:49;7.20;29.70
1351;DHT22;669;50.206;9.998;2023-02-28T14:26:31;7.20;29.30
1351;DHT22;669;50.206;9.998;2023-02-28T14:29:18;7.20;30.10
1351;DHT22;669;50.206;9.998;2023-02-28T14:31:57;7.30;30.90
1351;DHT22;669;50.206;9.998;2023-02-28T14:34:42;7.10;30.50
1351;DHT22;669;50.206;9.998;2023-02-28T14:37:14;7.30;30.20
1351;DHT22;669;50.206;9.998;2023-02-28T14:39:43;7.40;29.50
1351;DHT22;669;50.206;9.998;2023-02-28T14:42:32;7.00;30.70
1351;DHT22;669;50.206;9.998;2023-02-28T14:45:02;6.90;31.30
1351;DHT22;669;50.206;9.998;2023-02-28T14:47:32;7.00;30.00
1351;DHT22;669;50.206;9.998;2023-02-28T14:50:02;7.10;32.30
1351;DHT22;669;50.206;9.998;2023-02-28T14:52:33;7.10;31.20
1351;DHT22;669;50.206;9.998;2023-02-28T14:55:03;7.00;30.50
1351;DHT22;669;50.206;9.998;2023-02-28T14:57:35;6.90;30.00
1351;DHT22;669;50.206;9.998;2023-02-28T15:00:14;6.80;30.90
1351;DHT22;669;50.206;9.998;2023-02-28T15:02:44;6.70;32.40
1351;DHT22;669;50.206;9.998;2023-02-28T15:05:22;6.50;31.10
1351;DHT22;669;50.206;9.998;2023-02-28T15:08:05;6.40;32.50
1351;DHT22;669;50.206;9.998;2023-02-28T15:10:34;6.50;30.30
1351;DHT22;669;50.206;9.998;2023-02-28T15:13:04;6.10;32.30
1351;DHT22;669;50.206;9.998;2023-02-28T15:15:43;6.10;34.10
1351;DHT22;669;50.206;9.998;2023-02-28T15:18:33;6.00;32.50
1351;DHT22;669;50.206;9.998;2023-02-28T15:21:07;6.00;34.40
1351;DHT22;669;50.206;9.998;2023-02-28T15:23:36;6.10;34.50
1351;DHT22;669;50.206;9.998;2023-02-28T15:26:05;6.00;34.00
1351;DHT22;669;50.206;9.998;2023-02-28T15:28:33;5.90;33.90
1351;DHT22;669;50.206;9.998;2023-02-28T15:31:03;5.70;34.50
1351;DHT22;669;50.206;9.998;2023-02-28T15:33:53;5.60;35.20
1351;DHT22;669;50.206;9.998;2023-02-28T15:36:25;5.40;35.40
1351;DHT22;669;50.206;9.998;2023-02-28T15:38:55;5.40;35.50
1351;DHT22;669;50.206;9.998;2023-02-28T15:41:37;5.30;35.60
1351;DHT22;669;50.206;9.998;2023-02-28T15:44:17;5.30;36.60
1351;DHT22;669;50.206;9.998;2023-02-28T15:46:58;5.30;37.70
1351;DHT22;669;50.206;9.998;2023-02-28T15:49:26;5.20;35.50
1351;DHT22;669;50.206;9.998;2023-02-28T15:51:58;5.10;36.10
1351;DHT22;669;50.206;9.998;2023-02-28T15:54:30;4.90;34.70
1351;DHT22;669;50.206;9.998;2023-02-28T15:57:04;4.90;36.60
1351;DHT22;669;50.206;9.998;2023-02-28T15:59:36;4.80;36.80
1351;DHT22;669;50.206;9.998;2023-02-28T16:02:15;4.70;37.70
1351;DHT22;669;50.206;9.998;2023-02-28T16:04:59;4.60;36.10
1351;DHT22;669;50.206;9.998;2023-02-28T16:07:28;4.50;36.90
1351;DHT22;669;50.206;9.998;2023-02-28T16:09:56;4.40;35.00
1351;DHT22;669;50.206;9.998;2023-02-28T16:12:27;4.30;37.40
1351;DHT22;669;50.206;9.998;2023-02-28T16:14:57;4.20;36.10
1351;DHT22;669;50.206;9.998;2023-02-28T16:17:28;4.10;38.20
1351;DHT22;669;50.206;9.998;2023-02-28T16:19:56;3.90;38.50
1351;DHT22;669;50.206;9.998;2023-02-28T16:22:25;3.90;37.40
1351;DHT22;669;50.206;9.998;2023-02-28T16:24:53;3.80;38.50
1351;DHT22;669;50.206;9.998;2023-02-28T16:27:24;3.70;38.40
1351;DHT22;669;50.206;9.998;2023-02-28T16:29:54;3.70;39.00
1351;DHT22;669;50.206;9.998;2023-02-28T16:32:22;3.60;39.10
1351;DHT22;669;50.206;9.998;2023-02-28T16:34:51;3.50;38.60
1351;DHT22;669;50.206;9.998;2023-02-28T16:37:19;3.40;39.70
1351;DHT22;669;50.206;9.998;2023-02-28T16:39:47;3.30;38.60
1351;DHT22;669;50.206;9.998;2023-02-28T16:42:21;3.30;39.80
1351;DHT22;669;50.206;9.998;2023-02-28T16:44:50;3.20;40.70
1351;DHT22;669;50.206;9.998;2023-02-28T16:47:18;3.20;40.40
1351;DHT22;669;50.206;9.998;2023-02-28T16:49:46;3.10;40.50
1351;DHT22;669;50.206;9.998;2023-02-28T16:52:16;3.10;40.10
1351;DHT22;669;50.206;9.998;2023-02-28T16:54:43;3.00;41.00
1351;DHT22;669;50.206;9.998;2023-02-28T16:57:18;2.90;41.60
1351;DHT22;669;50.206;9.998;2023-02-28T16:59:48;2.90;41.90
1351;DHT22;669;50.206;9.998;2023-02-28T17:02:18;2.90;41.40
1351;DHT22;669;50.206;9.998;2023-02-28T17:04:47;2.80;41.20
1351;DHT22;669;50.206;9.998;2023-02-28T17:07:16;2.70;40.80
1351;DHT22;669;50.206;9.998;2023-02-28T17:09:45;2.70;41.20
1351;DHT22;669;50.206;9.998;2023-02-28T17:12:13;2.70;42.40
1351;DHT22;669;50.206;9.998;2023-02-28T17:14:41;2.60;42.10
1351;DHT22;669;50.206;9.998;2023-02-28T17:17:16;2.50;43.50